sensor_id;sensor_type;location;lat;lon;timestamp;P1;durP1;ratioP1;P2;durP2;ratioP2
55328;SDS011;41205;44.264;19.884;2023-10-08T00:01:35;7.72;;;4.30;;
55328;SDS011;41205;44.264;19.884;2023-10-08T00:04:07;7.32;;;3.95;;
55328;SDS011;41205;44.264;19.884;2023-10-08T00:06:33;7.90;;;4.70;;
55328;SDS011;41205;44.264;19.884;2023-10-08T00:08:58;8.38;;;5.05;;
55328;SDS011;41205;44.264;19.884;2023-10-08T00:11:26;8.48;;;5.03;;
55328;SDS011;41205;44.264;19.884;2023-10-08T00:13:54;10.40;;;4.90;;
55328;SDS011;41205;44.264;19.884;2023-10-08T00:16:21;7.45;;;4.35;;
55328;SDS011;41205;44.264;19.884;2023-10-08T00:18:47;8.35;;;4.20;;
55328;SDS011;41205;44.264;19.884;2023-10-08T00:21:19;9.10;;;4.10;;
55328;SDS011;41205;44.264;19.884;2023-10-08T00:23:52;7.72;;;5.00;;
55328;SDS011;41205;44.264;19.884;2023-10-08T00:26:24;7.50;;;4.00;;
55328;SDS011;41205;44.264;19.884;2023-10-08T00:28:59;8.57;;;4.13;;
55328;SDS011;41205;44.264;19.884;2023-10-08T00:31:31;9.85;;;4.43;;
55328;SDS011;41205;44.264;19.884;2023-10-08T00:34:05;7.75;;;5.03;;
55328;SDS011;41205;44.264;19.884;2023-10-08T00:36:33;10.07;;;4.63;;
55328;SDS011;41205;44.264;19.884;2023-10-08T00:38:59;8.18;;;4.28;;
55328;SDS011;41205;44.264;19.884;2023-10-08T00:41:25;6.75;;;4.25;;
55328;SDS011;41205;44.264;19.884;2023-10-08T00:43:57;8.15;;;4.15;;
55328;SDS011;41205;44.264;19.884;2023-10-08T00:46:25;7.97;;;4.78;;
55328;SDS011;41205;44.264;19.884;2023-10-08T00:49:11;9.63;;;5.65;;
55328;SDS011;41205;44.264;19.884;2023-10-08T00:51:57;9.93;;;6.05;;
55328;SDS011;41205;44.264;19.884;2023-10-08T00:54:29;6.63;;;4.68;;
55328;SDS011;41205;44.264;19.884;2023-10-08T00:57:18;8.52;;;4.32;;
55328;SDS011;41205;44.264;19.884;2023-10-08T00:59:47;8.15;;;3.38;;
55328;SDS011;41205;44.264;19.884;2023-10-08T01:02:21;8.85;;;5.22;;
55328;SDS011;41205;44.264;19.884;2023-10-08T01:04:51;9.43;;;5.72;;
55328;SDS011;41205;44.264;19.884;2023-10-08T01:07:19;9.90;;;5.78;;
55328;SDS011;41205;44.264;19.884;2023-10-08T01:09:46;9.60;;;6.50;;
55328;SDS011;41205;44.264;19.884;2023-10-08T01:12:19;10.50;;;6.97;;
55328;SDS011;41205;44.264;19.884;2023-10-08T01:17:19;11.02;;;6.95;;
55328;SDS011;41205;44.264;19.884;2023-10-08T01:19:49;10.20;;;6.72;;
55328;SDS011;41205;44.264;19.884;2023-10-08T01:22:35;11.65;;;5.90;;
55328;SDS011;41205;44.264;19.884;2023-10-08T01:25:04;9.95;;;5.43;;
55328;SDS011;41205;44.264;19.884;2023-10-08T01:27:31;9.13;;;6.18;;
55328;SDS011;41205;44.264;19.884;2023-10-08T01:30:00;11.57;;;7.72;;
55328;SDS011;41205;44.264;19.884;2023-10-08T01:32:42;9.32;;;6.32;;
55328;SDS011;41205;44.264;19.884;2023-10-08T01:35:09;10.13;;;7.40;;
55328;SDS011;41205;44.264;19.884;2023-10-08T01:37:51;10.48;;;6.40;;
55328;SDS011;41205;44.264;19.884;2023-10-08T01:40:18;9.85;;;5.75;;
55328;SDS011;41205;44.264;19.884;2023-10-08T01:42:43;10.35;;;5.63;;
55328;SDS011;41205;44.264;19.884;2023-10-08T01:45:11;7.13;;;4.55;;
55328;SDS011;41205;44.264;19.884;2023-10-08T01:47:38;8.95;;;4.90;;
55328;SDS011;41205;44.264;19.884;2023-10-08T01:50:04;12.05;;;5.72;;
55328;SDS011;41205;44.264;19.884;2023-10-08T01:52:37;7.88;;;5.22;;
55328;SDS011;41205;44.264;19.884;2023-10-08T01:55:05;10.18;;;5.50;;
55328;SDS011;41205;44.264;19.884;2023-10-08T01:57:35;8.27;;;5.22;;
55328;SDS011;41205;44.264;19.884;2023-10-08T02:00:02;9.13;;;5.10;;
55328;SDS011;41205;44.264;19.884;2023-10-08T02:02:32;8.93;;;5.05;;
55328;SDS011;41205;44.264;19.884;2023-10-08T02:04:58;14.30;;;5.63;;
55328;SDS011;41205;44.264;19.884;2023-10-08T02:07:24;10.23;;;4.70;;
55328;SDS011;41205;44.264;19.884;2023-10-08T02:09:50;10.32;;;4.80;;
55328;SDS011;41205;44.264;19.884;2023-10-08T02:12:16;8.80;;;5.30;;
55328;SDS011;41205;44.264;19.884;2023-10-08T02:14:41;7.38;;;4.43;;
55328;SDS011;41205;44.264;19.884;2023-10-08T02:17:07;8.75;;;4.65;;
55328;SDS011;41205;44.264;19.884;2023-10-08T02:19:34;9.27;;;4.95;;
55328;SDS011;41205;44.264;19.884;2023-10-08T02:22:02;8.40;;;4.65;;
55328;SDS011;41205;44.264;19.884;2023-10-08T02:24:30;6.97;;;4.30;;
55328;SDS011;41205;44.264;19.884;2023-10-08T02:26:57;6.75;;;4.22;;
55328;SDS011;41205;44.264;19.884;2023-10-08T02:29:28;6.68;;;4.00;;
55328;SDS011;41205;44.264;19.884;2023-10-08T02:31:58;10.20;;;5.55;;
55328;SDS011;41205;44.264;19.884;2023-10-08T02:34:24;8.45;;;4.57;;
55328;SDS011;41205;44.264;19.884;2023-10-08T02:36:51;9.55;;;5.45;;
55328;SDS011;41205;44.264;19.884;2023-10-08T02:39:17;7.25;;;4.72;;
55328;SDS011;41205;44.264;19.884;2023-10-08T02:41:52;8.55;;;4.18;;
55328;SDS011;41205;44.264;19.884;2023-10-08T02:44:21;7.82;;;4.82;;
55328;SDS011;41205;44.264;19.884;2023-10-08T02:46:48;9.38;;;4.28;;
55328;SDS011;41205;44.264;19.884;2023-10-08T02:49:14;8.48;;;4.60;;
55328;SDS011;41205;44.264;19.884;2023-10-08T02:51:52;9.00;;;5.13;;
55328;SDS011;41205;44.264;19.884;2023-10-08T02:54:19;8.60;;;4.72;;
55328;SDS011;41205;44.264;19.884;2023-10-08T02:56:49;7.65;;;4.57;;
55328;SDS011;41205;44.264;19.884;2023-10-08T02:59:32;7.05;;;4.10;;
55328;SDS011;41205;44.264;19.884;2023-10-08T03:02:05;6.65;;;4.25;;
55328;SDS011;41205;44.264;19.884;2023-10-08T03:04:39;8.85;;;4.95;;
55328;SDS011;41205;44.264;19.884;2023-10-08T03:07:13;9.13;;;4.30;;
55328;SDS011;41205;44.264;19.884;2023-10-08T03:09:57;5.85;;;3.72;;
55328;SDS011;41205;44.264;19.884;2023-10-08T03:12:42;6.57;;;3.88;;
55328;SDS011;41205;44.264;19.884;2023-10-08T03:15:12;9.35;;;4.90;;
55328;SDS011;41205;44.264;19.884;2023-10-08T03:17:42;10.02;;;4.40;;
55328;SDS011;41205;44.264;19.884;2023-10-08T03:20:17;8.23;;;4.40;;
55328;SDS011;41205;44.264;19.884;2023-10-08T03:23:02;7.07;;;3.88;;
55328;SDS011;41205;44.264;19.884;2023-10-08T03:25:31;6.88;;;4.25;;
55328;SDS011;41205;44.264;19.884;2023-10-08T03:28:06;6.88;;;4.57;;
55328;SDS011;41205;44.264;19.884;2023-10-08T03:30:34;5.93;;;3.90;;
55328;SDS011;41205;44.264;19.884;2023-10-08T03:33:13;6.35;;;4.53;;
55328;SDS011;41205;44.264;19.884;2023-10-08T03:35:47;8.60;;;4.30;;
55328;SDS011;41205;44.264;19.884;2023-10-08T03:38:15;7.28;;;4.15;;
55328;SDS011;41205;44.264;19.884;2023-10-08T03:40:47;6.85;;;3.65;;
55328;SDS011;41205;44.264;19.884;2023-10-08T03:43:15;7.72;;;4.25;;
55328;SDS011;41205;44.264;19.884;2023-10-08T03:45:48;10.80;;;4.28;;
55328;SDS011;41205;44.264;19.884;2023-10-08T03:48:19;8.15;;;4.35;;
55328;SDS011;41205;44.264;19.884;2023-10-08T03:50:47;7.90;;;4.25;;
55328;SDS011;41205;44.264;19.884;2023-10-08T03:53:22;7.60;;;4.43;;
55328;SDS011;41205;44.264;19.884;2023-10-08T03:55:48;8.43;;;4.53;;
55328;SDS011;41205;44.264;19.884;2023-10-08T03:58:17;6.32;;;3.90;;
55328;SDS011;41205;44.264;19.884;2023-10-08T04:00:57;7.57;;;4.32;;
55328;SDS011;41205;44.264;19.884;2023-10-08T04:03:36;9.23;;;4.05;;
55328;SDS011;41205;44.264;19.884;2023-10-08T04:06:20;7.95;;;4.07;;
55328;SDS011;41205;44.264;19.884;2023-10-08T04:09:04;7.00;;;4.55;;
55328;SDS011;41205;44.264;19.884;2023-10-08T04:11:33;8.40;;;4.35;;
55328;SDS011;41205;44.264;19.884;2023-10-08T04:14:15;8.40;;;5.18;;
55328;SDS011;41205;44.264;19.884;2023-10-08T04:16:44;8.88;;;4.88;;
55328;SDS011;41205;44.264;19.884;2023-10-08T04:19:11;6.75;;;3.80;;
55328;SDS011;41205;44.264;19.884;2023-10-08T04:21:37;7.28;;;4.15;;
55328;SDS011;41205;44.264;19.884;2023-10-08T04:24:07;8.27;;;4.63;;
55328;SDS011;41205;44.264;19.884;2023-10-08T04:26:36;9.50;;;4.95;;
55328;SDS011;41205;44.264;19.884;2023-10-08T04:29:05;8.00;;;4.68;;
55328;SDS011;41205;44.264;19.884;2023-10-08T04:31:35;5.60;;;3.70;;
55328;SDS011;41205;44.264;19.884;2023-10-08T04:34:05;8.63;;;4.80;;
55328;SDS011;41205;44.264;19.884;2023-10-08T04:36:47;6.72;;;3.78;;
55328;SDS011;41205;44.264;19.884;2023-10-08T04:39:20;8.85;;;4.22;;
55328;SDS011;41205;44.264;19.884;2023-10-08T04:42:00;8.35;;;3.75;;
55328;SDS011;41205;44.264;19.884;2023-10-08T04:44:36;7.88;;;4.20;;
55328;SDS011;41205;44.264;19.884;2023-10-08T04:47:09;7.13;;;4.10;;
55328;SDS011;41205;44.264;19.884;2023-10-08T04:49:37;6.93;;;3.85;;
55328;SDS011;41205;44.264;19.884;2023-10-08T04:52:10;7.72;;;3.45;;
55328;SDS011;41205;44.264;19.884;2023-10-08T04:54:40;6.57;;;4.20;;
55328;SDS011;41205;44.264;19.884;2023-10-08T04:57:16;7.43;;;4.43;;
55328;SDS011;41205;44.264;19.884;2023-10-08T04:59:43;6.35;;;4.10;;
55328;SDS011;41205;44.264;19.884;2023-10-08T05:02:11;7.90;;;4.25;;
55328;SDS011;41205;44.264;19.884;2023-10-08T05:04:57;7.03;;;3.58;;
55328;SDS011;41205;44.264;19.884;2023-10-08T05:07:35;9.27;;;3.95;;
55328;SDS011;41205;44.264;19.884;2023-10-08T05:10:10;7.38;;;4.05;;
55328;SDS011;41205;44.264;19.884;2023-10-08T05:12:55;7.93;;;4.00;;
55328;SDS011;41205;44.264;19.884;2023-10-08T05:15:31;7.03;;;4.63;;
55328;SDS011;41205;44.264;19.884;2023-10-08T05:18:12;7.85;;;3.78;;
55328;SDS011;41205;44.264;19.884;2023-10-08T05:20:44;7.20;;;4.30;;
55328;SDS011;41205;44.264;19.884;2023-10-08T05:23:16;7.05;;;4.20;;
55328;SDS011;41205;44.264;19.884;2023-10-08T05:25:52;7.30;;;4.45;;
55328;SDS011;41205;44.264;19.884;2023-10-08T05:28:30;9.73;;;5.20;;
55328;SDS011;41205;44.264;19.884;2023-10-08T05:31:06;14.43;;;11.40;;
55328;SDS011;41205;44.264;19.884;2023-10-08T05:33:41;11.40;;;7.20;;
55328;SDS011;41205;44.264;19.884;2023-10-08T05:36:40;8.70;;;5.18;;
55328;SDS011;41205;44.264;19.884;2023-10-08T05:39:24;8.27;;;4.70;;
55328;SDS011;41205;44.264;19.884;2023-10-08T05:41:50;8.07;;;5.28;;
55328;SDS011;41205;44.264;19.884;2023-10-08T05:44:19;8.48;;;5.25;;
55328;SDS011;41205;44.264;19.884;2023-10-08T05:46:45;8.15;;;4.82;;
55328;SDS011;41205;44.264;19.884;2023-10-08T05:49:20;7.28;;;4.43;;
55328;SDS011;41205;44.264;19.884;2023-10-08T05:54:29;8.20;;;5.00;;
55328;SDS011;41205;44.264;19.884;2023-10-08T05:57:03;8.30;;;4.88;;
55328;SDS011;41205;44.264;19.884;2023-10-08T05:59:50;8.45;;;4.25;;
55328;SDS011;41205;44.264;19.884;2023-10-08T06:02:22;10.00;;;5.70;;
55328;SDS011;41205;44.264;19.884;2023-10-08T06:04:52;6.82;;;4.10;;
55328;SDS011;41205;44.264;19.884;2023-10-08T06:07:35;9.32;;;5.50;;
55328;SDS011;41205;44.264;19.884;2023-10-08T06:10:27;8.48;;;5.30;;
55328;SDS011;41205;44.264;19.884;2023-10-08T06:15:44;7.47;;;5.28;;
55328;SDS011;41205;44.264;19.884;2023-10-08T06:18:14;8.85;;;5.22;;
55328;SDS011;41205;44.264;19.884;2023-10-08T06:20:41;8.48;;;4.90;;
55328;SDS011;41205;44.264;19.884;2023-10-08T06:23:13;11.15;;;5.45;;
55328;SDS011;41205;44.264;19.884;2023-10-08T06:25:46;7.45;;;4.40;;
55328;SDS011;41205;44.264;19.884;2023-10-08T06:28:19;7.25;;;4.50;;
55328;SDS011;41205;44.264;19.884;2023-10-08T06:30:48;8.27;;;5.20;;
55328;SDS011;41205;44.264;19.884;2023-10-08T06:33:18;6.60;;;4.28;;
55328;SDS011;41205;44.264;19.884;2023-10-08T06:35:45;6.55;;;4.38;;
55328;SDS011;41205;44.264;19.884;2023-10-08T06:38:32;7.60;;;4.72;;
55328;SDS011;41205;44.264;19.884;2023-10-08T06:40:59;8.30;;;5.30;;
55328;SDS011;41205;44.264;19.884;2023-10-08T06:43:26;7.95;;;4.25;;
55328;SDS011;41205;44.264;19.884;2023-10-08T06:45:52;7.72;;;4.10;;
55328;SDS011;41205;44.264;19.884;2023-10-08T06:48:18;8.60;;;5.18;;
55328;SDS011;41205;44.264;19.884;2023-10-08T06:50:51;10.47;;;7.40;;
55328;SDS011;41205;44.264;19.884;2023-10-08T06:55:49;9.63;;;5.25;;
55328;SDS011;41205;44.264;19.884;2023-10-08T06:58:29;8.15;;;4.97;;
55328;SDS011;41205;44.264;19.884;2023-10-08T07:00:58;7.47;;;4.85;;
55328;SDS011;41205;44.264;19.884;2023-10-08T07:03:29;9.35;;;5.57;;
55328;SDS011;41205;44.264;19.884;2023-10-08T07:05:56;13.93;;;5.20;;
55328;SDS011;41205;44.264;19.884;2023-10-08T07:08:27;7.97;;;4.80;;
55328;SDS011;41205;44.264;19.884;2023-10-08T07:10:56;7.90;;;4.40;;
55328;SDS011;41205;44.264;19.884;2023-10-08T07:13:24;5.07;;;3.08;;
55328;SDS011;41205;44.264;19.884;2023-10-08T07:15:54;7.25;;;4.47;;
55328;SDS011;41205;44.264;19.884;2023-10-08T07:18:21;7.85;;;4.65;;
55328;SDS011;41205;44.264;19.884;2023-10-08T07:20:53;7.55;;;5.32;;
55328;SDS011;41205;44.264;19.884;2023-10-08T07:23:21;8.73;;;4.60;;
55328;SDS011;41205;44.264;19.884;2023-10-08T07:25:59;6.18;;;3.80;;
55328;SDS011;41205;44.264;19.884;2023-10-08T07:28:43;8.57;;;4.85;;
55328;SDS011;41205;44.264;19.884;2023-10-08T07:33:41;9.13;;;5.85;;
55328;SDS011;41205;44.264;19.884;2023-10-08T07:39:31;11.88;;;6.65;;
55328;SDS011;41205;44.264;19.884;2023-10-08T07:41:57;6.85;;;4.13;;
55328;SDS011;41205;44.264;19.884;2023-10-08T07:44:25;6.75;;;4.30;;
55328;SDS011;41205;44.264;19.884;2023-10-08T07:46:55;8.20;;;4.95;;
55328;SDS011;41205;44.264;19.884;2023-10-08T07:49:21;8.65;;;5.38;;
55328;SDS011;41205;44.264;19.884;2023-10-08T07:51:48;7.07;;;4.43;;
55328;SDS011;41205;44.264;19.884;2023-10-08T07:54:21;7.80;;;5.60;;
55328;SDS011;41205;44.264;19.884;2023-10-08T07:56:48;9.43;;;6.18;;
55328;SDS011;41205;44.264;19.884;2023-10-08T07:59:22;7.13;;;5.20;;
55328;SDS011;41205;44.264;19.884;2023-10-08T08:01:49;9.20;;;6.88;;
55328;SDS011;41205;44.264;19.884;2023-10-08T08:04:17;11.43;;;6.22;;
55328;SDS011;41205;44.264;19.884;2023-10-08T08:06:49;10.40;;;6.65;;
55328;SDS011;41205;44.264;19.884;2023-10-08T08:09:18;8.80;;;6.18;;
55328;SDS011;41205;44.264;19.884;2023-10-08T08:14:14;9.15;;;6.18;;
55328;SDS011;41205;44.264;19.884;2023-10-08T08:16:50;10.88;;;6.65;;
55328;SDS011;41205;44.264;19.884;2023-10-08T08:19:16;10.35;;;6.43;;
55328;SDS011;41205;44.264;19.884;2023-10-08T08:24:14;8.68;;;5.82;;
55328;SDS011;41205;44.264;19.884;2023-10-08T08:26:54;10.23;;;6.57;;
55328;SDS011;41205;44.264;19.884;2023-10-08T08:29:32;7.93;;;5.65;;
55328;SDS011;41205;44.264;19.884;2023-10-08T08:32:09;9.70;;;6.70;;
55328;SDS011;41205;44.264;19.884;2023-10-08T08:34:40;10.18;;;8.00;;
55328;SDS011;41205;44.264;19.884;2023-10-08T08:37:11;9.93;;;7.93;;
55328;SDS011;41205;44.264;19.884;2023-10-08T08:39:38;10.43;;;7.90;;
55328;SDS011;41205;44.264;19.884;2023-10-08T08:42:04;11.90;;;8.52;;
55328;SDS011;41205;44.264;19.884;2023-10-08T08:44:37;10.65;;;6.85;;
55328;SDS011;41205;44.264;19.884;2023-10-08T08:47:16;9.23;;;6.53;;
55328;SDS011;41205;44.264;19.884;2023-10-08T08:49:46;7.60;;;5.63;;
55328;SDS011;41205;44.264;19.884;2023-10-08T08:52:13;9.93;;;6.30;;
55328;SDS011;41205;44.264;19.884;2023-10-08T08:54:40;10.05;;;6.07;;
55328;SDS011;41205;44.264;19.884;2023-10-08T08:57:07;6.43;;;4.82;;
55328;SDS011;41205;44.264;19.884;2023-10-08T08:59:39;9.23;;;5.32;;
55328;SDS011;41205;44.264;19.884;2023-10-08T09:02:13;6.97;;;5.03;;
55328;SDS011;41205;44.264;19.884;2023-10-08T09:04:40;8.48;;;5.32;;
55328;SDS011;41205;44.264;19.884;2023-10-08T09:07:06;9.48;;;5.40;;
55328;SDS011;41205;44.264;19.884;2023-10-08T09:09:33;14.73;;;5.57;;
55328;SDS011;41205;44.264;19.884;2023-10-08T09:12:03;9.10;;;4.45;;
55328;SDS011;41205;44.264;19.884;2023-10-08T09:14:30;10.88;;;5.50;;
55328;SDS011;41205;44.264;19.884;2023-10-08T09:16:59;10.98;;;4.30;;
55328;SDS011;41205;44.264;19.884;2023-10-08T09:19:30;9.02;;;5.22;;
55328;SDS011;41205;44.264;19.884;2023-10-08T09:24:31;9.35;;;4.32;;
55328;SDS011;41205;44.264;19.884;2023-10-08T09:27:07;10.23;;;5.47;;
55328;SDS011;41205;44.264;19.884;2023-10-08T09:29:39;9.60;;;4.70;;
55328;SDS011;41205;44.264;19.884;2023-10-08T09:32:06;10.45;;;5.10;;
55328;SDS011;41205;44.264;19.884;2023-10-08T09:34:33;14.23;;;4.75;;
55328;SDS011;41205;44.264;19.884;2023-10-08T09:37:00;11.80;;;5.63;;
55328;SDS011;41205;44.264;19.884;2023-10-08T09:39:26;12.88;;;4.63;;
55328;SDS011;41205;44.264;19.884;2023-10-08T09:41:57;9.70;;;4.63;;
55328;SDS011;41205;44.264;19.884;2023-10-08T09:44:23;10.80;;;5.60;;
55328;SDS011;41205;44.264;19.884;2023-10-08T09:47:23;8.77;;;4.20;;
55328;SDS011;41205;44.264;19.884;2023-10-08T09:49:51;8.50;;;4.53;;
55328;SDS011;41205;44.264;19.884;2023-10-08T09:52:23;9.82;;;4.53;;
55328;SDS011;41205;44.264;19.884;2023-10-08T09:54:56;9.27;;;4.72;;
55328;SDS011;41205;44.264;19.884;2023-10-08T09:57:28;8.05;;;4.45;;
55328;SDS011;41205;44.264;19.884;2023-10-08T09:59:55;8.73;;;4.75;;
55328;SDS011;41205;44.264;19.884;2023-10-08T10:02:22;10.38;;;4.53;;
55328;SDS011;41205;44.264;19.884;2023-10-08T10:04:52;7.05;;;4.32;;
55328;SDS011;41205;44.264;19.884;2023-10-08T10:07:20;8.60;;;4.35;;
55328;SDS011;41205;44.264;19.884;2023-10-08T10:09:49;12.50;;;5.28;;
55328;SDS011;41205;44.264;19.884;2023-10-08T10:12:24;11.13;;;4.50;;
55328;SDS011;41205;44.264;19.884;2023-10-08T10:14:55;7.90;;;4.30;;
55328;SDS011;41205;44.264;19.884;2023-10-08T10:17:25;10.70;;;5.15;;
55328;SDS011;41205;44.264;19.884;2023-10-08T10:19:55;8.25;;;4.93;;
55328;SDS011;41205;44.264;19.884;2023-10-08T10:22:31;9.13;;;4.43;;
55328;SDS011;41205;44.264;19.884;2023-10-08T10:24:59;9.55;;;4.75;;
55328;SDS011;41205;44.264;19.884;2023-10-08T10:27:28;9.20;;;5.15;;
55328;SDS011;41205;44.264;19.884;2023-10-08T10:30:01;11.70;;;4.65;;
55328;SDS011;41205;44.264;19.884;2023-10-08T10:32:34;8.07;;;4.30;;
55328;SDS011;41205;44.264;19.884;2023-10-08T10:35:00;8.13;;;5.22;;
55328;SDS011;41205;44.264;19.884;2023-10-08T10:37:30;8.32;;;4.35;;
55328;SDS011;41205;44.264;19.884;2023-10-08T10:40:07;9.93;;;5.32;;
55328;SDS011;41205;44.264;19.884;2023-10-08T10:42:37;9.05;;;4.60;;
55328;SDS011;41205;44.264;19.884;2023-10-08T10:45:13;12.23;;;4.95;;
55328;SDS011;41205;44.264;19.884;2023-10-08T10:47:59;9.75;;;5.60;;
55328;SDS011;41205;44.264;19.884;2023-10-08T10:50:58;11.65;;;4.97;;
55328;SDS011;41205;44.264;19.884;2023-10-08T10:53:34;11.20;;;4.85;;
55328;SDS011;41205;44.264;19.884;2023-10-08T10:56:17;9.68;;;4.95;;
55328;SDS011;41205;44.264;19.884;2023-10-08T10:58:58;8.60;;;4.60;;
55328;SDS011;41205;44.264;19.884;2023-10-08T11:01:28;8.55;;;4.38;;
55328;SDS011;41205;44.264;19.884;2023-10-08T11:04:10;8.80;;;4.72;;
55328;SDS011;41205;44.264;19.884;2023-10-08T11:06:41;8.23;;;4.85;;
55328;SDS011;41205;44.264;19.884;2023-10-08T11:09:12;8.18;;;4.50;;
55328;SDS011;41205;44.264;19.884;2023-10-08T11:11:44;12.70;;;5.68;;
55328;SDS011;41205;44.264;19.884;2023-10-08T11:14:19;7.93;;;4.65;;
55328;SDS011;41205;44.264;19.884;2023-10-08T11:16:47;10.38;;;4.55;;
55328;SDS011;41205;44.264;19.884;2023-10-08T11:19:16;7.10;;;4.40;;
55328;SDS011;41205;44.264;19.884;2023-10-08T11:21:51;11.82;;;4.95;;
55328;SDS011;41205;44.264;19.884;2023-10-08T11:24:28;11.80;;;5.30;;
55328;SDS011;41205;44.264;19.884;2023-10-08T11:27:00;9.85;;;4.43;;
55328;SDS011;41205;44.264;19.884;2023-10-08T11:29:42;8.95;;;4.18;;
55328;SDS011;41205;44.264;19.884;2023-10-08T11:32:21;9.45;;;4.93;;
55328;SDS011;41205;44.264;19.884;2023-10-08T11:34:59;8.15;;;5.00;;
55328;SDS011;41205;44.264;19.884;2023-10-08T11:37:29;12.13;;;5.32;;
55328;SDS011;41205;44.264;19.884;2023-10-08T11:39:58;12.90;;;5.75;;
55328;SDS011;41205;44.264;19.884;2023-10-08T11:42:33;8.95;;;5.22;;
55328;SDS011;41205;44.264;19.884;2023-10-08T11:44:59;12.88;;;5.63;;
55328;SDS011;41205;44.264;19.884;2023-10-08T11:47:43;9.90;;;5.05;;
55328;SDS011;41205;44.264;19.884;2023-10-08T11:50:10;11.48;;;4.75;;
55328;SDS011;41205;44.264;19.884;2023-10-08T11:52:41;7.50;;;4.47;;
55328;SDS011;41205;44.264;19.884;2023-10-08T11:55:10;10.80;;;4.75;;
55328;SDS011;41205;44.264;19.884;2023-10-08T11:57:47;12.73;;;5.20;;
55328;SDS011;41205;44.264;19.884;2023-10-08T12:00:16;11.15;;;5.13;;
55328;SDS011;41205;44.264;19.884;2023-10-08T12:02:51;11.98;;;4.65;;
55328;SDS011;41205;44.264;19.884;2023-10-08T12:05:19;12.23;;;5.05;;
55328;SDS011;41205;44.264;19.884;2023-10-08T12:07:49;10.32;;;4.55;;
55328;SDS011;41205;44.264;19.884;2023-10-08T12:10:19;10.70;;;4.90;;
55328;SDS011;41205;44.264;19.884;2023-10-08T12:12:52;10.27;;;5.28;;
55328;SDS011;41205;44.264;19.884;2023-10-08T12:15:24;13.43;;;5.70;;
55328;SDS011;41205;44.264;19.884;2023-10-08T12:17:59;10.38;;;5.43;;
55328;SDS011;41205;44.264;19.884;2023-10-08T12:20:38;9.50;;;5.20;;
55328;SDS011;41205;44.264;19.884;2023-10-08T12:23:05;10.82;;;5.80;;
55328;SDS011;41205;44.264;19.884;2023-10-08T12:25:34;17.98;;;5.47;;
55328;SDS011;41205;44.264;19.884;2023-10-08T12:28:02;9.57;;;4.75;;
55328;SDS011;41205;44.264;19.884;2023-10-08T12:30:31;12.55;;;5.78;;
55328;SDS011;41205;44.264;19.884;2023-10-08T12:33:06;9.93;;;4.75;;
55328;SDS011;41205;44.264;19.884;2023-10-08T12:35:32;10.25;;;5.75;;
55328;SDS011;41205;44.264;19.884;2023-10-08T12:37:58;10.90;;;5.72;;
55328;SDS011;41205;44.264;19.884;2023-10-08T12:40:24;13.45;;;6.13;;
55328;SDS011;41205;44.264;19.884;2023-10-08T12:42:56;14.57;;;5.40;;
55328;SDS011;41205;44.264;19.884;2023-10-08T12:45:24;16.35;;;5.20;;
55328;SDS011;41205;44.264;19.884;2023-10-08T12:47:52;11.55;;;4.75;;
55328;SDS011;41205;44.264;19.884;2023-10-08T12:50:21;12.45;;;5.97;;
55328;SDS011;41205;44.264;19.884;2023-10-08T12:53:10;12.95;;;6.25;;
55328;SDS011;41205;44.264;19.884;2023-10-08T12:55:38;12.95;;;5.40;;
55328;SDS011;41205;44.264;19.884;2023-10-08T12:58:05;12.63;;;6.05;;
55328;SDS011;41205;44.264;19.884;2023-10-08T13:00:37;14.02;;;6.63;;
55328;SDS011;41205;44.264;19.884;2023-10-08T13:03:03;8.02;;;5.50;;
55328;SDS011;41205;44.264;19.884;2023-10-08T13:05:32;15.27;;;5.95;;
55328;SDS011;41205;44.264;19.884;2023-10-08T13:07:59;14.02;;;6.53;;
55328;SDS011;41205;44.264;19.884;2023-10-08T13:10:34;15.43;;;6.07;;
55328;SDS011;41205;44.264;19.884;2023-10-08T13:13:00;11.02;;;6.07;;
55328;SDS011;41205;44.264;19.884;2023-10-08T13:15:26;14.18;;;6.47;;
55328;SDS011;41205;44.264;19.884;2023-10-08T13:17:52;12.68;;;6.03;;
55328;SDS011;41205;44.264;19.884;2023-10-08T13:20:18;15.45;;;6.50;;
55328;SDS011;41205;44.264;19.884;2023-10-08T13:22:46;11.95;;;6.55;;
55328;SDS011;41205;44.264;19.884;2023-10-08T13:25:12;15.52;;;6.93;;
55328;SDS011;41205;44.264;19.884;2023-10-08T13:27:38;14.40;;;6.75;;
55328;SDS011;41205;44.264;19.884;2023-10-08T13:30:07;14.05;;;6.50;;
55328;SDS011;41205;44.264;19.884;2023-10-08T13:32:36;14.40;;;7.20;;
55328;SDS011;41205;44.264;19.884;2023-10-08T13:35:03;12.48;;;6.75;;
55328;SDS011;41205;44.264;19.884;2023-10-08T13:37:31;10.95;;;6.32;;
55328;SDS011;41205;44.264;19.884;2023-10-08T13:39:58;14.02;;;6.85;;
55328;SDS011;41205;44.264;19.884;2023-10-08T13:42:24;14.95;;;6.68;;
55328;SDS011;41205;44.264;19.884;2023-10-08T13:44:52;16.13;;;7.20;;
55328;SDS011;41205;44.264;19.884;2023-10-08T13:47:18;12.00;;;6.45;;
55328;SDS011;41205;44.264;19.884;2023-10-08T13:49:47;11.10;;;6.20;;
55328;SDS011;41205;44.264;19.884;2023-10-08T13:52:15;12.48;;;7.40;;
55328;SDS011;41205;44.264;19.884;2023-10-08T13:54:42;13.43;;;7.38;;
55328;SDS011;41205;44.264;19.884;2023-10-08T13:57:15;11.70;;;6.72;;
55328;SDS011;41205;44.264;19.884;2023-10-08T13:59:43;11.75;;;6.03;;
55328;SDS011;41205;44.264;19.884;2023-10-08T14:02:09;13.38;;;7.22;;
55328;SDS011;41205;44.264;19.884;2023-10-08T14:04:44;11.52;;;6.03;;
55328;SDS011;41205;44.264;19.884;2023-10-08T14:07:11;13.98;;;6.00;;
55328;SDS011;41205;44.264;19.884;2023-10-08T14:09:41;14.88;;;6.72;;
55328;SDS011;41205;44.264;19.884;2023-10-08T14:12:10;16.10;;;6.80;;
55328;SDS011;41205;44.264;19.884;2023-10-08T14:14:36;13.70;;;7.78;;
55328;SDS011;41205;44.264;19.884;2023-10-08T14:17:08;13.23;;;6.63;;
55328;SDS011;41205;44.264;19.884;2023-10-08T14:19:39;14.90;;;8.30;;
55328;SDS011;41205;44.264;19.884;2023-10-08T14:22:33;13.35;;;6.18;;
55328;SDS011;41205;44.264;19.884;2023-10-08T14:25:00;14.27;;;6.78;;
55328;SDS011;41205;44.264;19.884;2023-10-08T14:27:30;13.23;;;6.20;;
55328;SDS011;41205;44.264;19.884;2023-10-08T14:30:03;11.73;;;6.80;;
55328;SDS011;41205;44.264;19.884;2023-10-08T14:32:30;13.85;;;6.97;;
55328;SDS011;41205;44.264;19.884;2023-10-08T14:34:59;13.93;;;6.47;;
55328;SDS011;41205;44.264;19.884;2023-10-08T14:37:43;18.40;;;8.48;;
55328;SDS011;41205;44.264;19.884;2023-10-08T14:40:29;12.93;;;7.57;;
55328;SDS011;41205;44.264;19.884;2023-10-08T14:43:13;11.95;;;6.10;;
55328;SDS011;41205;44.264;19.884;2023-10-08T14:45:40;8.23;;;5.70;;
55328;SDS011;41205;44.264;19.884;2023-10-08T14:48:08;10.52;;;6.25;;
55328;SDS011;41205;44.264;19.884;2023-10-08T14:50:36;11.30;;;7.10;;
55328;SDS011;41205;44.264;19.884;2023-10-08T14:53:04;12.40;;;6.95;;
55328;SDS011;41205;44.264;19.884;2023-10-08T14:55:30;15.05;;;6.05;;
55328;SDS011;41205;44.264;19.884;2023-10-08T14:57:59;16.42;;;7.10;;
55328;SDS011;41205;44.264;19.884;2023-10-08T15:00:31;13.90;;;6.65;;
55328;SDS011;41205;44.264;19.884;2023-10-08T15:02:57;15.10;;;5.80;;
55328;SDS011;41205;44.264;19.884;2023-10-08T15:05:27;12.88;;;7.03;;
55328;SDS011;41205;44.264;19.884;2023-10-08T15:07:53;14.70;;;7.30;;
55328;SDS011;41205;44.264;19.884;2023-10-08T15:10:19;22.73;;;6.45;;
55328;SDS011;41205;44.264;19.884;2023-10-08T15:12:48;15.52;;;7.20;;
55328;SDS011;41205;44.264;19.884;2023-10-08T15:15:17;11.35;;;6.25;;
55328;SDS011;41205;44.264;19.884;2023-10-08T15:17:44;17.83;;;7.47;;